Riley, Kansas
Current Conditions -  °F | °C
As of 7:52 PM on Friday 24 Oct 2014 (Local Time) from KMHK Reporting Station
Clear Clear  
Wind Chill: 71°   Ceiling: Unl
Heat Index: 71°   Visibility: 10mi
Dew Point: 62°   Wind: 5mph
Humidity: 73%   Direction: 240°WSW
Pressure: 29.95"   Gusts: NA
Location:  39.3°N, 96.83°W
Report Text: KMHK 250052Z 24004KT 10SM CLR 22/17 A2995 RMK AO2 SLP136 T02170167
Loading
Personal Weather Stations






























Interactive Weather Map
Tropical Storm Tracking
New forecast layout! Learn more

10-Day Weather Forecast

Advertisements
Track Severe Weather on mobile